Time;durP1;ratioP1;P1;durP2;ratioP2;P2;SDS_P1;SDS_P2;PMS_P1;PMS_P2;Temp;Humidity;BMP_temperature;BMP_pressure;BME280_temperature;BME280_humidity;BME280_pressure;Samples;Min_cycle;Max_cycle;Signal;HPM_P1;HPM_P2
2021/12/24 04:30:18;;;;;;;5.13;2.80;;;;;;;13.87;48.73;97911.53;8351071;23;20187;-83
2021/12/24 04:33:46;;;;;;;3.13;2.80;;;;;;;14.49;47.39;97921.16;6840724;28;20272;-82
2021/12/24 04:37:56;;;;;;;3.07;2.77;;;;;;;14.47;47.36;97917.06;6840787;28;20201;-80
2021/12/24 04:52:34;;;;;;;3.90;2.80;;;;;;;14.46;47.01;97916.22;6813557;29;20234;-79
2021/12/24 05:03:27;;;;;;;3.33;2.97;;;;;;;14.15;48.29;97907.91;6814037;29;20222;-79
2021/12/24 05:06:56;;;;;;;3.90;2.87;;;;;;;14.03;48.73;97918.84;6814421;29;20190;-80
2021/12/24 05:10:20;;;;;;;3.50;3.20;;;;;;;14.13;48.49;97907.31;6814517;29;20193;-80
2021/12/24 05:13:42;;;;;;;3.33;2.90;;;;;;;14.24;48.27;97898.31;6833067;29;20438;-81
2021/12/24 05:17:20;;;;;;;3.23;2.97;;;;;;;14.43;47.90;97896.94;6846014;28;20206;-79
2021/12/24 05:24:26;;;;;;;3.47;3.17;;;;;;;14.72;47.58;97926.34;6849431;29;20206;-82
2021/12/24 05:27:51;;;;;;;3.70;2.80;;;;;;;14.53;47.15;97907.91;6849958;28;20206;-80
2021/12/24 05:31:13;;;;;;;5.87;3.07;;;;;;;14.29;48.51;97911.94;6848404;28;20237;-81
2021/12/24 05:34:35;;;;;;;3.20;2.90;;;;;;;14.09;48.47;97881.81;6847523;28;20228;-82
2021/12/24 05:37:57;;;;;;;3.60;2.97;;;;;;;14.45;48.20;97908.38;6850378;28;20233;-81
2021/12/24 05:41:21;;;;;;;3.03;2.60;;;;;;;14.55;47.71;97919.31;6850603;28;20241;-80
2021/12/24 05:44:42;;;;;;;3.43;2.93;;;;;;;14.19;49.19;97920.75;6850229;28;20558;-80
2021/12/24 05:48:05;;;;;;;3.67;3.33;;;;;;;14.37;49.01;97903.34;6849950;28;20232;-80
2021/12/24 05:51:26;;;;;;;6.83;2.90;;;;;;;13.54;49.19;97780.75;6849399;28;20217;-82
2021/12/24 05:54:48;;;;;;;3.17;2.87;;;;;;;14.00;49.86;97886.00;6849031;28;20234;-81
2021/12/24 05:58:11;;;;;;;3.60;2.90;;;;;;;14.32;49.47;97897.84;6851193;28;20202;-87
2021/12/24 06:01:33;;;;;;;4.87;3.30;;;;;;;14.35;49.75;97900.09;6850144;28;20233;-81
2021/12/24 06:04:54;;;;;;;3.97;3.27;;;;;;;14.00;50.11;97892.25;6849893;28;20205;-81
2021/12/24 06:08:16;;;;;;;4.40;3.40;;;;;;;14.13;50.19;97908.16;6850627;28;20206;-82
2021/12/24 06:11:38;;;;;;;6.00;3.40;;;;;;;14.24;50.19;97909.97;6850891;28;20218;-82
2021/12/24 06:15:04;;;;;;;3.77;3.47;;;;;;;14.34;49.85;97904.69;6849238;28;20225;-84
2021/12/24 06:18:29;;;;;;;7.00;4.33;;;;;;;13.82;50.29;97854.59;6835236;28;20204;-80
2021/12/24 06:21:51;;;;;;;3.23;2.93;;;;;;;14.66;49.00;97921.09;6848845;28;20575;-84
2021/12/24 06:25:13;;;;;;;5.37;3.23;;;;;;;14.39;49.10;97898.53;6846065;28;20210;-82
2021/12/24 06:28:35;;;;;;;5.57;3.30;;;;;;;14.75;48.47;97914.19;6849793;28;20195;-81
2021/12/24 06:31:58;;;;;;;5.67;3.97;;;;;;;14.15;49.78;97911.44;6851213;28;20599;-80
2021/12/24 06:35:20;;;;;;;3.67;3.00;;;;;;;14.03;50.18;97904.47;6847900;28;20226;-80
2021/12/24 06:38:42;;;;;;;3.60;2.90;;;;;;;14.39;49.25;97906.66;6846540;28;20206;-80
2021/12/24 06:42:04;;;;;;;4.30;3.80;;;;;;;14.28;49.26;97894.84;6847494;28;20236;-79
2021/12/24 06:45:26;;;;;;;3.67;3.27;;;;;;;14.08;50.35;97926.22;6847885;28;20221;-83
2021/12/24 06:48:53;;;;;;;3.83;3.50;;;;;;;14.45;49.26;97914.59;6849732;28;20220;-80
2021/12/24 06:52:15;;;;;;;6.53;3.80;;;;;;;14.30;49.98;97940.69;6849972;28;20824;-83
2021/12/24 06:55:36;;;;;;;3.90;3.50;;;;;;;14.42;49.96;97920.53;6849058;28;20214;-84
2021/12/24 06:58:58;;;;;;;6.30;3.77;;;;;;;13.78;51.58;97918.47;6849360;28;20213;-82
2021/12/24 07:02:20;;;;;;;4.37;3.97;;;;;;;13.93;51.48;97937.66;6850017;28;20233;-80
2021/12/24 07:05:43;;;;;;;4.30;3.80;;;;;;;13.99;51.56;97930.44;6849251;28;20212;-82
2021/12/24 07:09:08;;;;;;;4.87;3.57;;;;;;;14.11;51.33;97939.28;6836726;28;20210;-82
2021/12/24 07:12:30;;;;;;;5.33;4.00;;;;;;;13.87;51.84;97918.88;6846503;28;20237;-84
2021/12/24 07:15:52;;;;;;;3.63;3.23;;;;;;;14.18;51.34;97924.50;6846221;28;20203;-83
2021/12/24 07:19:13;;;;;;;4.90;3.90;;;;;;;14.38;51.16;97927.53;6839743;28;20203;-83
2021/12/24 07:22:37;;;;;;;4.73;3.63;;;;;;;14.12;51.29;97892.13;6852826;28;20226;-83
2021/12/24 07:25:58;;;;;;;4.53;3.70;;;;;;;14.17;51.97;97949.94;6859650;29;20210;-82
2021/12/24 07:29:21;;;;;;;5.20;3.57;;;;;;;14.10;52.00;97932.22;6858752;28;20791;-84
2021/12/24 07:32:43;;;;;;;4.40;3.63;;;;;;;13.54;52.14;97857.41;6857513;28;20230;-83
2021/12/24 07:36:06;;;;;;;5.83;4.17;;;;;;;14.07;51.51;97914.56;6857338;28;20190;-83
2021/12/24 07:39:29;;;;;;;5.03;3.37;;;;;;;13.89;51.95;97912.13;6857534;28;20222;-84
2021/12/24 07:42:51;;;;;;;4.03;3.63;;;;;;;14.11;51.08;97893.22;6856819;28;20234;-84
2021/12/24 07:46:14;;;;;;;6.60;3.77;;;;;;;14.23;50.98;97910.22;6844335;28;20218;-83
2021/12/24 07:49:41;;;;;;;5.73;3.50;;;;;;;13.59;52.11;97903.53;6833811;29;20671;-83
2021/12/24 07:53:03;;;;;;;3.90;3.40;;;;;;;13.97;51.82;97930.69;6840596;29;20232;-83
2021/12/24 07:56:26;;;;;;;4.07;3.30;;;;;;;14.23;50.86;97927.28;6840836;28;20234;-82
2021/12/24 07:59:48;;;;;;;3.53;3.20;;;;;;;14.50;50.05;97905.69;6828558;29;20211;-84
2021/12/24 08:03:10;;;;;;;3.87;3.30;;;;;;;13.87;51.50;97927.00;6845488;28;20229;-82
2021/12/24 08:06:31;;;;;;;4.60;3.53;;;;;;;14.30;50.81;97930.66;6846526;28;20661;-83
2021/12/24 08:09:53;;;;;;;4.87;3.13;;;;;;;14.48;50.44;97929.53;6847666;28;20207;-83
2021/12/24 08:13:17;;;;;;;3.53;3.23;;;;;;;13.91;51.37;97901.03;6845759;28;20242;-84
2021/12/24 08:16:39;;;;;;;6.10;3.17;;;;;;;14.32;50.84;97914.13;6843772;28;20213;-85
2021/12/24 08:20:00;;;;;;;3.90;3.10;;;;;;;14.48;50.38;97913.28;6850201;28;20721;-83
2021/12/24 08:23:22;;;;;;;4.50;3.37;;;;;;;14.03;51.58;97921.56;6850100;28;20231;-81
2021/12/24 08:26:44;;;;;;;6.03;3.37;;;;;;;14.07;51.48;97916.44;6844194;28;20213;-82
2021/12/24 08:30:09;;;;;;;3.40;3.10;;;;;;;14.50;50.46;97916.53;6845031;28;20205;-84
2021/12/24 08:33:30;;;;;;;3.30;3.00;;;;;;;14.52;50.42;97914.41;6849483;28;20229;-83
2021/12/24 08:36:52;;;;;;;3.73;3.00;;;;;;;14.70;49.81;97922.25;6844902;28;20201;-85
2021/12/24 08:40:15;;;;;;;3.20;2.87;;;;;;;13.71;51.09;97877.19;6834671;29;20213;-84
2021/12/24 08:43:36;;;;;;;3.50;3.13;;;;;;;13.58;51.05;97807.06;6843348;29;20209;-84
2021/12/24 08:47:01;;;;;;;5.87;3.07;;;;;;;13.49;50.40;97756.28;6848560;28;20213;-84
2021/12/24 08:50:22;;;;;;;4.53;3.20;;;;;;;14.04;49.88;97820.19;6853287;28;20583;-85
2021/12/24 08:53:44;;;;;;;3.47;3.10;;;;;;;14.52;50.86;97923.34;6852054;28;20323;-85
2021/12/24 08:57:06;;;;;;;5.00;3.30;;;;;;;14.36;50.94;97905.25;6847817;28;20576;-84
2021/12/24 09:00:27;;;;;;;3.77;3.43;;;;;;;14.87;50.05;97917.56;6850910;28;20616;-81
2021/12/24 09:03:50;;;;;;;5.50;4.00;;;;;;;14.54;50.40;97906.84;6847130;28;20198;-84
2021/12/24 09:07:12;;;;;;;4.97;4.00;;;;;;;14.78;50.33;97922.63;6835582;29;20209;-85
2021/12/24 09:10:34;;;;;;;3.47;3.17;;;;;;;14.73;50.30;97930.69;6844330;28;20222;-84
2021/12/24 09:13:55;;;;;;;4.07;2.97;;;;;;;14.60;50.60;97906.66;6848800;28;20231;-87
2021/12/24 09:17:17;;;;;;;3.60;3.13;;;;;;;14.80;50.64;97927.81;6850383;28;20205;-86
2021/12/24 09:20:43;;;;;;;4.80;3.30;;;;;;;14.35;51.92;97929.91;6849314;28;20233;-84
2021/12/24 09:24:07;;;;;;;3.93;3.00;;;;;;;14.31;51.77;97901.66;6850851;29;20281;-85
2021/12/24 09:27:29;;;;;;;3.77;3.23;;;;;;;14.38;51.68;97927.53;6849161;28;20217;-84
2021/12/24 09:30:50;;;;;;;3.90;3.23;;;;;;;14.32;51.94;97922.25;6846167;28;20238;-85
2021/12/24 09:34:13;;;;;;;3.63;3.10;;;;;;;14.00;52.54;97905.81;6846644;28;20222;-85
2021/12/24 09:37:36;;;;;;;3.50;3.10;;;;;;;14.08;52.77;97916.22;6845851;28;20213;-82
2021/12/24 09:40:57;;;;;;;3.53;3.10;;;;;;;14.13;53.06;97908.16;6847525;29;20229;-85
2021/12/24 09:44:19;;;;;;;5.07;3.30;;;;;;;14.35;53.01;97905.50;6839068;29;20206;-84
2021/12/24 09:47:41;;;;;;;5.43;4.40;;;;;;;13.94;53.21;97878.88;6844604;29;20209;-85
2021/12/24 09:51:03;;;;;;;3.90;3.50;;;;;;;14.19;53.70;97907.19;6849339;28;20229;-84
2021/12/24 09:54:26;;;;;;;4.00;3.60;;;;;;;14.04;54.23;97892.56;6844321;28;20230;-85
2021/12/24 09:57:48;;;;;;;3.70;3.40;;;;;;;13.93;54.40;97899.72;6847319;28;20582;-85
2021/12/24 10:01:28;;;;;;;6.03;3.30;;;;;;;14.12;54.35;97897.56;6821447;29;20230;-84
2021/12/24 10:04:49;;;;;;;6.40;3.70;;;;;;;13.66;55.57;97892.50;6821719;29;20195;-85
2021/12/24 10:08:16;;;;;;;3.90;3.50;;;;;;;13.51;55.74;97893.06;6834484;29;20205;-83
2021/12/24 10:11:50;;;;;;;4.10;3.03;;;;;;;13.10;56.58;97871.00;6852231;28;20225;-83
2021/12/24 10:15:11;;;;;;;4.50;3.40;;;;;;;13.53;56.56;97904.50;6840439;29;20214;-82
2021/12/24 10:18:36;;;;;;;6.10;5.30;;;;;;;13.33;57.53;97898.72;6846674;28;20209;-81
2021/12/24 10:22:00;;;;;;;5.87;3.70;;;;;;;13.67;56.67;97908.53;6847410;28;20222;-82
2021/12/24 10:25:25;;;;;;;3.97;3.67;;;;;;;14.05;55.88;97922.13;6847857;28;20206;-82
2021/12/24 10:28:57;;;;;;;5.73;5.20;;;;;;;13.43;57.79;97908.91;6848137;28;20194;-86
2021/12/24 10:32:19;;;;;;;3.60;3.30;;;;;;;13.66;56.53;97896.06;6847490;28;20226;-85
2021/12/24 10:35:41;;;;;;;6.37;4.97;;;;;;;13.91;56.11;97899.16;6848236;28;20217;-84
2021/12/24 10:39:02;;;;;;;4.37;3.80;;;;;;;13.48;56.50;97838.59;6843451;28;20206;-88
2021/12/24 10:42:29;;;;;;;3.67;3.13;;;;;;;13.86;56.24;97863.84;6823109;29;20245;-85
2021/12/24 10:46:09;;;;;;;4.97;3.53;;;;;;;13.66;56.62;97874.38;6821727;29;20194;-85
2021/12/24 10:53:17;;;;;;;4.17;3.30;;;;;;;13.81;56.24;97846.72;6843360;28;20589;-85
2021/12/24 10:56:39;;;;;;;4.30;3.27;;;;;;;13.88;56.13;97871.72;6847309;28;20213;-85
2021/12/24 11:00:05;;;;;;;4.40;3.20;;;;;;;13.68;56.99;97850.56;6832076;29;20202;-85
2021/12/24 11:03:32;;;;;;;3.80;3.50;;;;;;;14.07;56.31;97857.66;6847532;28;20237;-85
2021/12/24 11:06:53;;;;;;;3.77;3.10;;;;;;;14.43;55.39;97862.50;6847453;28;20202;-85
2021/12/24 11:10:19;;;;;;;3.20;2.87;;;;;;;14.08;55.63;97853.03;6847447;28;20201;-85
2021/12/24 11:13:41;;;;;;;3.40;3.10;;;;;;;14.14;55.83;97850.16;6848360;28;20229;-86
2021/12/24 11:17:03;;;;;;;5.87;3.83;;;;;;;14.12;55.88;97854.19;6847950;28;20198;-85
2021/12/24 11:20:28;;;;;;;3.80;3.50;;;;;;;14.25;55.35;97843.00;6847970;28;20225;-83
2021/12/24 11:23:50;;;;;;;3.07;2.87;;;;;;;14.00;56.27;97853.47;6846399;28;20216;-85
2021/12/24 11:27:12;;;;;;;3.57;3.23;;;;;;;14.28;55.34;97848.75;6840112;28;20207;-84
2021/12/24 11:30:36;;;;;;;3.37;3.07;;;;;;;14.17;55.36;97825.25;6842338;28;20237;-84
2021/12/24 11:33:58;;;;;;;4.47;3.40;;;;;;;14.19;55.17;97844.00;6838985;28;20303;-83
2021/12/24 11:37:21;;;;;;;3.63;3.03;;;;;;;14.23;55.08;97826.97;6847539;28;20296;-83
2021/12/24 11:40:43;;;;;;;3.50;2.97;;;;;;;14.48;54.79;97835.44;6842629;28;20224;-83
2021/12/24 11:44:07;;;;;;;5.00;3.30;;;;;;;14.21;56.03;97845.41;6845722;29;20206;-84
2021/12/24 11:47:29;;;;;;;3.17;2.80;;;;;;;14.45;54.83;97829.72;6847698;28;20816;-83
2021/12/24 11:50:50;;;;;;;3.37;3.07;;;;;;;14.21;55.59;97839.19;6846510;28;20218;-83
2021/12/24 11:54:14;;;;;;;3.27;2.93;;;;;;;14.07;55.72;97816.16;6846639;28;20237;-84
2021/12/24 11:57:36;;;;;;;4.03;3.10;;;;;;;14.23;55.86;97834.31;6845417;28;20654;-85
2021/12/24 12:00:58;;;;;;;3.10;2.80;;;;;;;14.39;55.31;97814.47;6845102;28;20229;-85
2021/12/24 12:04:21;;;;;;;3.93;2.80;;;;;;;14.37;55.93;97822.00;6834781;28;20237;-87
2021/12/24 12:07:42;;;;;;;3.53;2.57;;;;;;;14.58;55.21;97818.47;6841655;29;20209;-85
2021/12/24 12:11:07;;;;;;;3.50;3.20;;;;;;;14.13;56.45;97821.41;6844364;28;20702;-84
2021/12/24 12:14:31;;;;;;;2.97;2.67;;;;;;;14.29;55.91;97792.63;6834128;29;20217;-84
2021/12/24 12:17:55;;;;;;;3.57;3.10;;;;;;;13.67;57.85;97791.22;6844323;28;20209;-84
2021/12/24 12:21:23;;;;;;;3.70;3.40;;;;;;;14.12;57.25;97797.25;6844700;28;20690;-84
2021/12/24 12:28:28;;;;;;;2.77;2.57;;;;;;;14.39;56.06;97761.03;6843630;28;20202;-85
2021/12/24 12:31:53;;;;;;;3.57;2.30;;;;;;;14.43;56.00;97754.03;6842799;28;20241;-83
2021/12/24 12:35:16;;;;;;;3.13;2.83;;;;;;;14.87;55.33;97779.16;6844129;28;20209;-84
2021/12/24 12:38:40;;;;;;;4.23;2.67;;;;;;;14.64;54.87;97727.94;6843025;28;20710;-84
2021/12/24 12:42:02;;;;;;;4.87;2.83;;;;;;;14.68;55.19;97757.00;6843155;28;20760;-83
2021/12/24 12:46:00;;;;;;;2.80;2.40;;;;;;;14.49;55.21;97728.59;6841361;28;20206;-83
2021/12/24 12:49:31;;;;;;;3.57;2.37;;;;;;;14.22;55.71;97718.81;6843350;28;20214;-83
2021/12/24 12:53:28;;;;;;;2.87;2.67;;;;;;;14.04;56.94;97746.22;6842678;29;20226;-84
2021/12/24 12:57:14;;;;;;;7.03;2.50;;;;;;;14.15;56.97;97756.13;6840889;28;20224;-84
2021/12/24 13:00:37;;;;;;;2.50;2.30;;;;;;;14.05;57.57;97773.06;6842345;28;20237;-83
2021/12/24 13:04:12;;;;;;;3.37;2.27;;;;;;;13.61;59.11;97755.13;6841916;28;20221;-84
2021/12/24 13:07:34;;;;;;;3.87;2.57;;;;;;;13.73;58.58;97734.16;6842466;28;20297;-83
2021/12/24 13:10:58;;;;;;;3.53;2.87;;;;;;;14.22;57.14;97744.03;6841625;28;20232;-84
2021/12/24 13:14:22;;;;;;;2.90;2.63;;;;;;;14.19;57.61;97732.88;6837551;28;20230;-84
2021/12/24 13:17:46;;;;;;;2.90;2.67;;;;;;;13.61;59.07;97751.59;6842991;28;20206;-83
2021/12/24 13:24:49;;;;;;;2.70;2.50;;;;;;;14.00;58.20;97758.63;6841467;29;20237;-84
2021/12/24 13:28:11;;;;;;;4.73;2.73;;;;;;;14.16;57.30;97738.78;6843386;28;20206;-84
2021/12/24 13:31:33;;;;;;;2.93;2.67;;;;;;;14.09;57.53;97744.38;6842690;28;20264;-82
2021/12/24 13:34:57;;;;;;;4.17;2.70;;;;;;;14.15;56.98;97734.44;6846082;28;20241;-83
2021/12/24 13:38:19;;;;;;;2.60;2.40;;;;;;;13.83;57.63;97707.22;6848522;28;20210;-80
2021/12/24 13:41:44;;;;;;;2.77;2.40;;;;;;;14.30;57.28;97748.19;6847682;28;20237;-83
2021/12/24 13:45:06;;;;;;;3.47;2.80;;;;;;;14.33;56.60;97721.38;6845696;29;20936;-82
2021/12/24 13:48:32;;;;;;;2.50;2.30;;;;;;;14.19;57.05;97736.41;6848096;28;20604;-81
2021/12/24 13:55:37;;;;;;;2.60;2.37;;;;;;;14.35;56.86;97740.09;6849714;29;20222;-81
2021/12/24 13:58:59;;;;;;;3.93;2.33;;;;;;;13.88;57.81;97738.97;6844342;28;20209;-84
2021/12/24 14:02:21;;;;;;;2.40;2.20;;;;;;;14.13;57.30;97723.84;6839470;28;20221;-84
2021/12/24 14:05:46;;;;;;;2.60;2.33;;;;;;;14.00;57.20;97737.78;6841170;28;20228;-86
2021/12/24 14:09:11;;;;;;;2.63;2.43;;;;;;;14.54;56.34;97719.69;6844547;28;20230;-84
2021/12/24 14:12:33;;;;;;;4.03;2.40;;;;;;;14.49;56.34;97730.47;6839654;29;20233;-85
2021/12/24 14:16:07;;;;;;;2.80;2.60;;;;;;;14.47;56.55;97735.34;6842453;28;20224;-82
2021/12/24 14:19:32;;;;;;;2.60;2.40;;;;;;;14.31;57.16;97719.97;6835063;28;20201;-81
2021/12/24 14:22:54;;;;;;;4.23;2.77;;;;;;;14.17;57.77;97738.50;6844056;28;20304;-80
2021/12/24 14:26:17;;;;;;;3.03;2.60;;;;;;;14.28;57.55;97737.56;6843738;28;20725;-81
2021/12/24 14:29:40;;;;;;;3.70;2.90;;;;;;;14.12;57.48;97694.28;6842863;28;20209;-80
2021/12/24 14:33:02;;;;;;;4.10;2.70;;;;;;;14.31;57.25;97745.22;6842218;28;20234;-80
2021/12/24 14:36:23;;;;;;;3.10;2.80;;;;;;;14.53;56.74;97748.72;6840172;28;20246;-81
2021/12/24 14:39:48;;;;;;;4.13;2.90;;;;;;;14.35;57.10;97743.66;6843230;28;20654;-81
2021/12/24 14:43:12;;;;;;;4.30;3.10;;;;;;;14.41;57.30;97747.22;6843257;28;20237;-81
2021/12/24 14:46:35;;;;;;;3.57;3.20;;;;;;;13.91;58.42;97733.03;6842392;28;20220;-82
2021/12/24 14:50:04;;;;;;;4.20;2.80;;;;;;;13.95;58.27;97751.25;6843917;28;20198;-82
2021/12/24 14:53:27;;;;;;;2.60;2.40;;;;;;;13.67;59.26;97747.88;6842690;28;20221;-81
2021/12/24 14:56:48;;;;;;;2.53;2.30;;;;;;;13.85;58.96;97753.84;6841830;28;20256;-82
2021/12/24 15:00:14;;;;;;;2.50;2.30;;;;;;;13.89;58.35;97751.44;6842569;28;20209;-82
2021/12/24 15:03:37;;;;;;;2.67;2.47;;;;;;;14.37;57.38;97744.19;6837134;28;20411;-79
2021/12/24 15:07:00;;;;;;;3.50;2.87;;;;;;;14.24;57.77;97747.31;6823948;29;20198;-81
2021/12/24 15:10:22;;;;;;;3.80;2.87;;;;;;;14.27;57.53;97737.84;6842993;28;20783;-81
2021/12/24 15:13:45;;;;;;;3.00;2.50;;;;;;;14.63;56.44;97732.53;6842357;28;20205;-80
2021/12/24 15:17:08;;;;;;;3.70;2.73;;;;;;;14.41;56.82;97730.94;6831152;29;20226;-83
2021/12/24 15:20:30;;;;;;;2.67;2.47;;;;;;;14.25;56.72;97721.00;6842214;28;20212;-82
2021/12/24 15:23:53;;;;;;;2.77;2.50;;;;;;;13.94;58.10;97713.56;6836837;28;20208;-80
2021/12/24 15:27:15;;;;;;;3.10;2.50;;;;;;;13.96;57.17;97695.16;6841767;28;20206;-81
2021/12/24 15:30:37;;;;;;;2.30;2.10;;;;;;;14.71;56.19;97739.38;6841042;28;20318;-82
2021/12/24 15:34:01;;;;;;;2.60;2.10;;;;;;;14.43;56.57;97710.63;6839043;29;20249;-83
2021/12/24 15:37:22;;;;;;;2.37;2.17;;;;;;;14.40;57.40;97734.75;6842266;28;20469;-82
2021/12/24 15:40:44;;;;;;;2.63;2.43;;;;;;;14.47;57.33;97733.47;6841352;28;20232;-80
2021/12/24 15:44:10;;;;;;;7.77;4.70;;;;;;;14.13;58.03;97713.00;6841445;28;20206;-81
2021/12/24 15:47:32;;;;;;;4.00;2.57;;;;;;;14.49;57.47;97725.06;6840772;28;20236;-80
2021/12/24 15:50:56;;;;;;;2.60;2.40;;;;;;;14.40;57.88;97726.59;6837429;28;20714;-81
2021/12/24 15:54:17;;;;;;;2.43;2.23;;;;;;;14.40;57.95;97719.28;6834075;28;20207;-81
2021/12/24 15:57:39;;;;;;;2.47;2.27;;;;;;;14.58;57.31;97723.53;6839796;28;20236;-80
2021/12/24 16:01:01;;;;;;;3.43;3.13;;;;;;;14.61;57.08;97702.13;6839133;28;20237;-80
2021/12/24 16:04:23;;;;;;;5.97;3.63;;;;;;;14.77;56.57;97717.50;6823805;28;20205;-80
2021/12/24 16:07:46;;;;;;;4.30;3.80;;;;;;;14.45;57.68;97711.19;6839147;28;20201;-80
2021/12/24 16:11:08;;;;;;;3.23;2.90;;;;;;;13.79;60.27;97705.25;6839660;28;20270;-80
2021/12/24 16:14:29;;;;;;;4.97;3.90;;;;;;;14.27;58.70;97706.13;6839824;28;20666;-80
2021/12/24 16:17:51;;;;;;;9.00;5.20;;;;;;;14.57;57.71;97714.56;6838098;28;20237;-80
2021/12/24 16:21:13;;;;;;;4.47;4.07;;;;;;;14.60;57.42;97715.94;6839296;28;20229;-81
2021/12/24 16:24:36;;;;;;;6.33;5.23;;;;;;;13.92;59.45;97707.59;6838594;29;20284;-79
2021/12/24 16:27:59;;;;;;;6.33;5.80;;;;;;;14.17;59.57;97722.22;6839894;29;20214;-80
2021/12/24 16:31:21;;;;;;;6.57;5.80;;;;;;;13.84;61.00;97710.72;6838565;28;20257;-78
2021/12/24 16:34:43;;;;;;;8.00;6.30;;;;;;;13.96;59.73;97712.25;6839093;28;20303;-79
2021/12/24 16:38:07;;;;;;;551.07;297.83;;;;;;;13.97;60.60;97718.47;6839646;28;20212;-80
2021/12/24 16:41:30;;;;;;;10.37;8.00;;;;;;;13.57;61.49;97685.47;6839737;28;20232;-78
2021/12/24 16:44:51;;;;;;;257.13;143.83;;;;;;;13.72;61.11;97710.88;6838840;28;20194;-80
2021/12/24 16:48:14;;;;;;;13.13;8.27;;;;;;;13.62;61.32;97690.97;6839617;28;20605;-79
2021/12/24 16:51:35;;;;;;;28.97;19.27;;;;;;;14.02;60.88;97710.41;6839061;28;20603;-79
2021/12/24 16:54:57;;;;;;;12.77;9.10;;;;;;;13.84;61.25;97710.72;6837718;28;20221;-79
2021/12/24 16:58:20;;;;;;;14.73;12.53;;;;;;;14.09;59.88;97711.06;6839050;28;20235;-79
2021/12/24 17:01:41;;;;;;;19.00;13.87;;;;;;;14.08;59.97;97690.41;6839099;28;20229;-80
2021/12/24 17:05:04;;;;;;;19.60;12.97;;;;;;;14.20;59.45;97699.25;6835445;28;20213;-81
2021/12/24 17:08:27;;;;;;;11.87;10.00;;;;;;;13.45;61.90;97690.19;6835431;28;20204;-77
2021/12/24 17:11:49;;;;;;;12.33;8.77;;;;;;;13.90;60.61;97686.16;6830467;28;20230;-78
2021/12/24 17:15:13;;;;;;;9.43;7.80;;;;;;;13.89;60.40;97698.06;6828780;28;20249;-78
2021/12/24 17:18:35;;;;;;;9.27;8.30;;;;;;;14.08;59.67;97682.28;6832718;29;20202;-80
2021/12/24 17:21:56;;;;;;;8.13;5.80;;;;;;;13.41;61.46;97679.03;6833952;28;20253;-78
2021/12/24 17:25:20;;;;;;;11.37;6.87;;;;;;;14.11;59.81;97687.22;6842814;28;20246;-81
2021/12/24 17:28:42;;;;;;;14.23;11.43;;;;;;;14.12;60.02;97683.44;6845014;28;20225;-80
2021/12/24 17:32:06;;;;;;;17.47;11.13;;;;;;;14.31;59.03;97677.44;6847621;28;20236;-79
2021/12/24 17:35:28;;;;;;;9.60;8.00;;;;;;;13.67;59.64;97663.91;6848038;28;20225;-80
2021/12/24 17:38:49;;;;;;;11.67;8.43;;;;;;;13.81;60.70;97684.97;6844247;28;20206;-81
2021/12/24 17:42:12;;;;;;;11.20;8.63;;;;;;;13.94;59.52;97670.22;6844607;28;20244;-81
2021/12/24 17:45:34;;;;;;;11.90;9.00;;;;;;;13.14;62.42;97686.22;6843914;28;20217;-81
2021/12/24 17:48:57;;;;;;;12.80;8.97;;;;;;;13.57;61.75;97650.28;6845100;28;20205;-81
2021/12/24 17:52:20;;;;;;;16.10;10.53;;;;;;;13.42;61.25;97650.91;6843411;28;20234;-80
2021/12/24 17:55:41;;;;;;;21.70;18.63;;;;;;;13.50;61.86;97684.81;6843184;28;20256;-80
2021/12/24 17:59:04;;;;;;;20.27;16.80;;;;;;;13.39;62.54;97667.63;6844041;28;20675;-80
2021/12/24 18:02:25;;;;;;;12.17;10.27;;;;;;;13.65;60.87;97671.50;6843066;28;20225;-80
2021/12/24 18:05:48;;;;;;;23.87;20.37;;;;;;;13.19;62.58;97655.69;6843179;28;20577;-81
2021/12/24 18:09:10;;;;;;;15.90;11.90;;;;;;;13.63;61.93;97679.84;6844051;28;20723;-83
2021/12/24 18:12:32;;;;;;;10.40;7.20;;;;;;;13.91;60.59;97657.16;6844136;28;20229;-79
2021/12/24 18:15:54;;;;;;;6.17;5.33;;;;;;;13.15;62.66;97662.69;6848766;28;20360;-80
2021/12/24 18:19:17;;;;;;;8.00;6.10;;;;;;;13.78;60.85;97633.19;6845100;28;20235;-79
2021/12/24 18:22:40;;;;;;;4.90;3.67;;;;;;;14.11;60.19;97662.81;6843585;28;20309;-79
2021/12/24 18:26:02;;;;;;;4.27;3.70;;;;;;;14.02;59.46;97657.03;6843746;28;20206;-79
2021/12/24 18:29:24;;;;;;;5.33;4.83;;;;;;;14.03;59.83;97674.09;6843740;28;20202;-80
2021/12/24 18:32:46;;;;;;;4.90;4.47;;;;;;;13.91;60.13;97652.56;6829550;28;20270;-79
2021/12/24 18:36:08;;;;;;;5.43;4.60;;;;;;;13.70;61.25;97674.25;6821684;29;20222;-80
2021/12/24 18:39:33;;;;;;;11.80;9.23;;;;;;;14.03;60.43;97674.09;6818153;29;20293;-79
2021/12/24 18:42:55;;;;;;;8.77;6.57;;;;;;;13.27;62.72;97680.44;6823234;29;20678;-79
2021/12/24 18:46:26;;;;;;;5.90;5.30;;;;;;;13.69;61.45;97678.03;6843745;28;20209;-79
2021/12/24 18:49:47;;;;;;;4.67;4.27;;;;;;;13.80;61.57;97663.56;6843166;28;20674;-80
2021/12/24 18:53:10;;;;;;;6.97;6.07;;;;;;;13.72;61.27;97670.22;6844349;28;20229;-79
2021/12/24 18:56:38;;;;;;;7.50;5.30;;;;;;;13.74;62.07;97670.78;6843613;28;20237;-80
2021/12/24 18:59:59;;;;;;;7.20;5.43;;;;;;;13.91;61.04;97678.84;6844303;29;20684;-79
2021/12/24 19:03:27;;;;;;;13.60;10.47;;;;;;;14.30;59.71;97662.25;6845256;28;20594;-79
2021/12/24 19:06:49;;;;;;;11.33;7.97;;;;;;;14.05;60.22;97678.19;6843362;28;20674;-81
2021/12/24 19:10:11;;;;;;;9.33;5.90;;;;;;;13.89;60.70;97678.28;6829423;28;20218;-81
2021/12/24 19:13:36;;;;;;;9.13;7.93;;;;;;;13.82;61.01;97677.66;6833935;29;20250;-82
2021/12/24 19:16:58;;;;;;;6.37;5.73;;;;;;;13.55;61.80;97660.50;6831417;29;20323;-80
2021/12/24 19:20:22;;;;;;;23.93;17.43;;;;;;;13.81;61.46;97682.25;6834512;28;20202;-81
2021/12/24 19:23:44;;;;;;;6.97;5.70;;;;;;;13.22;62.32;97645.19;6837821;28;20217;-80
2021/12/24 19:27:05;;;;;;;8.90;6.57;;;;;;;13.53;62.92;97687.03;6835330;28;20209;-80
2021/12/24 19:30:29;;;;;;;12.50;10.03;;;;;;;13.87;62.23;97702.09;6837366;28;20621;-81
2021/12/24 19:33:50;;;;;;;9.47;7.13;;;;;;;13.97;62.01;97686.78;6834787;29;20206;-80
2021/12/24 19:37:12;;;;;;;12.10;7.87;;;;;;;13.95;62.06;97693.53;6838746;29;20646;-79
2021/12/24 19:40:34;;;;;;;6.53;5.40;;;;;;;13.38;63.53;97671.41;6839122;28;20233;-79
2021/12/24 19:43:56;;;;;;;6.87;5.43;;;;;;;13.46;64.14;97681.00;6839924;28;20236;-83
2021/12/24 19:47:19;;;;;;;6.53;5.90;;;;;;;13.22;64.77;97680.38;6837388;28;20202;-79
2021/12/24 19:50:41;;;;;;;8.80;6.90;;;;;;;13.20;65.95;97677.09;6834786;28;20236;-80
2021/12/24 19:54:03;;;;;;;6.63;5.37;;;;;;;13.65;64.26;97677.72;6834412;28;20213;-80
2021/12/24 19:57:26;;;;;;;9.70;7.53;;;;;;;13.73;63.80;97684.56;6835903;29;20586;-80
2021/12/24 20:00:49;;;;;;;6.00;5.30;;;;;;;13.99;63.10;97681.13;6838698;29;20217;-78
2021/12/24 20:04:12;;;;;;;6.07;5.20;;;;;;;13.35;64.18;97658.38;6839666;28;20250;-82
2021/12/24 20:07:34;;;;;;;5.27;4.07;;;;;;;13.15;65.67;97695.16;6839002;28;20205;-80
2021/12/24 20:10:55;;;;;;;5.87;5.00;;;;;;;13.62;64.07;97686.34;6839097;28;20221;-80
2021/12/24 20:14:17;;;;;;;7.07;5.37;;;;;;;13.10;65.75;97685.06;6838633;28;20213;-80
2021/12/24 20:17:39;;;;;;;7.23;5.63;;;;;;;13.72;64.10;97683.78;6838985;28;20610;-79
2021/12/24 20:21:05;;;;;;;10.87;6.70;;;;;;;13.97;62.72;97666.97;6838690;29;20249;-79
2021/12/24 20:24:27;;;;;;;12.77;8.17;;;;;;;13.94;63.16;97690.00;6833957;29;20198;-79
2021/12/24 20:27:48;;;;;;;15.27;11.07;;;;;;;13.55;63.79;97685.72;6836811;29;20197;-80
2021/12/24 20:31:13;;;;;;;14.27;8.83;;;;;;;12.99;65.51;97680.56;6837893;28;20253;-79
2021/12/24 20:34:34;;;;;;;14.53;10.33;;;;;;;13.46;64.39;97678.28;6838045;28;20209;-79
2021/12/24 20:37:58;;;;;;;12.20;9.00;;;;;;;13.06;65.79;97677.69;6838944;28;20224;-78
2021/12/24 20:41:20;;;;;;;9.17;8.00;;;;;;;12.95;66.50;97692.97;6837441;28;20225;-79
2021/12/24 20:44:41;;;;;;;10.57;6.77;;;;;;;13.17;66.26;97690.31;6837361;28;20201;-78
2021/12/24 20:48:04;;;;;;;9.60;7.03;;;;;;;13.17;65.84;97695.72;6837225;28;20205;-79
2021/12/24 20:51:25;;;;;;;7.57;5.67;;;;;;;13.07;66.30;97695.56;6839295;28;20221;-78
2021/12/24 20:54:48;;;;;;;7.33;5.30;;;;;;;13.01;66.65;97678.44;6837450;28;20221;-79
2021/12/24 20:58:10;;;;;;;7.03;5.50;;;;;;;13.13;66.35;97705.41;6834536;28;20769;-78
2021/12/24 21:01:32;;;;;;;9.67;5.20;;;;;;;13.21;65.97;97694.97;6836978;28;20737;-78